Carr, Colorado
Current Conditions -  °F | °C
As of 7:56 AM on Friday 24 Oct 2014 (Local Time) from KFEW Reporting Station
Broken Clouds Broken Clouds  
Wind Chill: 56°   Ceiling: 23000
Heat Index: 56°   Visibility: 10mi
Dew Point: 26°   Wind: 12mph
Humidity: 31%   Direction: 270°W
Pressure: 30.16"   Gusts: NA
Location:  40.9°N, 104.88°W
Report Text: KFEW 241356Z AUTO 27010KT 10SM BKN230 13/M04 A3016 RMK AO2 SLP162 T01321036 $
Loading
Personal Weather Stations






























Interactive Weather Map
Tropical Storm Tracking
New forecast layout! Learn more

10-Day Weather Forecast

Advertisements
Track Severe Weather on mobile